Latest Weather Observations for Hillarys Point Boat Harbour

IDW60801

Issued at 11:33 pm WST Tuesday 18 February 2020 (issued every 10 minutes, with the page automatically refreshed every 10 minutes)

About weather observations | Map of weather stations | Latest weather observations for WA | Other Formats
Station Details ID: 009265 Name: HILLARYS BOAT HARBOUR NTC AWS Lat: -31.83 Lon: 115.74 Height: 0.0 m
Data from the previous 72 hours. | See also: Recent months for locations in Western Australia
Date/Time
WST
Temp
°C
App
Temp
°C
Dew
Point
°C
Rel
Hum
%
Delta-T
°C
Wind Press
QNH
hPa
Press
MSL
hPa
Rain since
9am
mm
Dir  Spd
km/h
Gust
km/h
Spd
kts
Gust
kts
18/11:30pm 29.0 - - - - E 9 20 5 11 1011.3 1011.2 -
18/11:00pm 28.9 - - - - E 9 17 5 9 1011.5 1011.4 -
18/10:30pm 28.8 - - - - E 6 13 3 7 1011.7 1011.6 -
18/10:00pm 28.9 - - - - E 4 9 2 5 1012.2 1012.1 -
18/09:30pm 29.3 - - - - E 4 9 2 5 1012.3 1012.2 -
18/09:00pm 29.8 - - - - ESE 4 9 2 5 1012.5 1012.4 -
18/08:30pm 30.5 - - - - E 6 13 3 7 1012.2 1012.1 -
18/08:00pm 30.7 - - - - E 4 11 2 6 1011.9 1011.8 -
18/07:30pm 30.9 - - - - ESE 2 11 1 6 1011.6 1011.5 -
18/07:00pm 31.3 - - - - SSE 4 9 2 5 1011.3 1011.2 -
18/06:30pm 32.2 - - - - ESE 4 13 2 7 1011.2 1011.1 -
18/06:00pm 32.5 - - - - E 7 17 4 9 1011.4 1011.3 -
18/05:30pm 32.6 - - - - E 9 24 5 13 1011.5 1011.4 -
18/05:00pm 32.5 - - - - E 15 28 8 15 1011.8 1011.7 -
18/04:30pm 32.2 - - - - ENE 17 33 9 18 1012.3 1012.2 -
18/04:00pm 32.3 - - - - ESE 7 24 4 13 1012.3 1012.2 -
18/03:30pm 31.8 - - - - E 13 24 7 13 1012.7 1012.6 -
18/03:00pm 31.6 - - - - E 9 20 5 11 1013.0 1013.0 -
18/02:30pm 30.8 - - - - E 9 24 5 13 1013.3 1013.3 -
18/02:00pm 30.6 - - - - ESE 9 22 5 12 1013.8 1013.8 -
18/01:30pm 30.0 - - - - E 13 26 7 14 1014.1 1014.1 -
18/01:00pm 29.4 - - - - ENE 13 28 7 15 1014.6 1014.6 -
18/12:30pm 28.6 - - - - E 13 30 7 16 1015.1 1015.1 -
18/12:00pm 27.9 - - - - ENE 15 32 8 17 1015.5 1015.5 -
18/11:30am 26.8 - - - - ENE 19 32 10 17 1016.1 1016.1 -
18/11:00am 26.4 - - - - ENE 20 32 11 17 1016.6 1016.6 -
18/10:30am 25.3 - - - - ENE 20 35 11 19 1017.0 1017.0 -
18/10:00am 24.5 - - - - E 15 32 8 17 1017.0 1017.0 -
18/09:30am 23.1 - - - - E 17 33 9 18 1017.4 1017.4 -
18/09:00am 22.3 - - - - E 20 35 11 19 1017.1 1017.1 -
18/08:30am 20.9 - - - - ENE 28 50 15 27 1017.0 1017.0 -
18/08:00am 20.1 - - - - E 28 50 15 27 1017.2 1017.2 -
18/07:30am 19.2 - - - - E 26 44 14 24 1017.1 1017.1 -
18/07:00am 18.7 - - - - E 24 43 13 23 1017.1 1017.1 -
18/06:33am 18.3 - - - - E 28 46 15 25 1017.0 1017.0 -
18/06:30am 18.3 - - - - E 26 46 14 25 1017.0 1017.0 -
18/06:01am 18.2 - - - - E 28 50 15 27 1017.0 1017.0 -
18/06:00am 18.2 - - - - E 26 50 14 27 1017.0 1017.0 -
18/05:30am 18.1 - - - - E 28 46 15 25 1017.0 1017.0 -
18/05:06am 18.1 - - - - E 28 50 15 27 1016.9 1016.9 -
18/05:00am 18.2 - - - - E 28 44 15 24 1017.0 1017.0 -
18/04:30am 18.3 - - - - E 26 50 14 27 1017.2 1017.2 -
18/04:14am 18.3 - - - - E 28 52 15 28 1017.3 1017.3 -
18/04:00am 18.4 - - - - E 26 43 14 23 1017.3 1017.3 -
18/03:37am 18.5 - - - - E 28 50 15 27 1017.3 1017.3 -
18/03:30am 18.5 - - - - E 24 44 13 24 1017.2 1017.2 -
18/03:00am 18.8 - - - - E 30 57 16 31 1017.3 1017.3 -
18/02:42am 19.0 - - - - E 28 56 15 30 1017.1 1017.1 -
18/02:30am 19.2 - - - - E 26 44 14 24 1017.1 1017.1 -
18/02:02am 19.6 - - - - E 28 46 15 25 1017.1 1017.1 -
18/02:00am 19.6 - - - - E 28 44 15 24 1017.2 1017.2 -
18/01:30am 20.1 - - - - E 20 39 11 21 1017.4 1017.4 -
18/01:00am 20.7 - - - - E 20 43 11 23 1017.6 1017.6 -
18/12:31am 21.5 - - - - E 28 57 15 31 1017.7 1017.7 -
18/12:30am 21.6 - - - - E 26 57 14 31 1017.7 1017.7 -
18/12:00am 22.4 - - - - E 20 41 11 22 1017.9 1017.9 -
 
Date/Time
WST
Temp
°C
App
Temp
°C
Dew
Point
°C
Rel
Hum
%
Delta-T
°C
Wind Press
QNH
hPa
Press
MSL
hPa
Rain since
9am
mm
Dir  Spd
km/h
Gust
km/h
Spd
kts
Gust
kts
17/11:30pm 23.3 - - - - E 17 35 9 19 1017.9 1017.9 -
17/11:00pm 24.2 - - - - E 15 32 8 17 1017.7 1017.7 -
17/10:30pm 25.1 - - - - E 15 30 8 16 1017.4 1017.4 -
17/10:00pm 26.6 - - - - E 11 37 6 20 1017.5 1017.5 -
17/09:30pm 26.5 - - - - ESE 4 13 2 7 1017.3 1017.3 -
17/09:00pm 26.9 - - - - ESE 4 9 2 5 1017.2 1017.2 -
17/08:30pm 24.9 - - - - SE 2 7 1 4 1017.0 1017.0 -
17/08:00pm 24.3 - - - - SSE 6 15 3 8 1016.8 1016.8 -
17/07:30pm 23.9 - - - - S 6 17 3 9 1016.5 1016.5 -
17/07:00pm 24.0 - - - - S 7 20 4 11 1016.2 1016.2 -
17/06:30pm 23.9 - - - - SSW 11 26 6 14 1016.1 1016.1 -
17/06:00pm 24.0 - - - - SSW 13 26 7 14 1016.0 1016.0 -
17/05:30pm 24.1 - - - - SSW 11 28 6 15 1016.1 1016.1 -
17/05:00pm 24.2 - - - - SSW 11 26 6 14 1016.2 1016.2 -
17/04:30pm 23.9 - - - - SSW 17 32 9 17 1016.2 1016.2 -
17/04:00pm 24.0 - - - - SSW 17 37 9 20 1016.3 1016.3 -
17/03:30pm 23.8 - - - - SSW 19 37 10 20 1016.4 1016.4 -
17/03:00pm 23.5 - - - - SSW 22 37 12 20 1016.5 1016.5 -
17/02:30pm 23.4 - - - - SSW 22 39 12 21 1016.8 1016.8 -
17/02:00pm 24.0 - - - - SSW 20 35 11 19 1017.3 1017.3 -
17/01:30pm 23.9 - - - - SSW 19 32 10 17 1017.7 1017.7 -
17/01:00pm 23.8 - - - - SSW 17 32 9 17 1017.8 1017.8 -
17/12:30pm 23.7 - - - - SW 19 30 10 16 1018.1 1018.1 -
17/12:00pm 23.8 - - - - SSW 17 28 9 15 1018.5 1018.5 -
17/11:30am 25.3 - - - - SE 6 15 3 8 1018.9 1018.9 -
17/11:00am 26.0 - - - - ESE 7 20 4 11 1018.9 1018.9 -
17/10:30am 25.4 - - - - E 7 19 4 10 1019.2 1019.2 -
17/10:00am 24.4 - - - - E 6 13 3 7 1019.7 1019.7 -
17/09:30am 23.6 - - - - ENE 11 22 6 12 1019.8 1019.8 -
17/09:00am 22.9 - - - - E 7 17 4 9 1019.8 1019.8 -
17/08:30am 21.7 - - - - E 11 28 6 15 1019.9 1019.9 -
17/08:00am 21.2 - - - - SE 7 22 4 12 1019.9 1019.9 -
17/07:30am 20.4 - - - - SE 6 17 3 9 1019.8 1019.8 -
17/07:00am 19.9 - - - - SE 6 15 3 8 1019.6 1019.6 -
17/06:30am 19.4 - - - - ESE 4 15 2 8 1019.3 1019.3 -
17/06:00am 19.6 - - - - SSE 7 13 4 7 1019.1 1019.1 -
17/05:30am 19.6 - - - - SE 6 13 3 7 1018.8 1018.8 -
17/05:00am 19.9 - - - - SE 7 26 4 14 1018.7 1018.7 -
17/04:30am 20.0 - - - - SE 6 17 3 9 1018.3 1018.3 -
17/04:00am 20.0 - - - - SE 7 17 4 9 1018.0 1018.0 -
17/03:30am 20.0 - - - - SSE 9 22 5 12 1017.9 1017.9 -
17/03:00am 19.9 - - - - SSE 11 20 6 11 1017.6 1017.6 -
17/02:30am 19.9 - - - - SSE 11 24 6 13 1017.3 1017.3 -
17/02:00am 19.9 - - - - SSE 13 22 7 12 1017.1 1017.1 -
17/01:30am 20.4 - - - - SSE 11 22 6 12 1017.0 1017.0 -
17/01:00am 20.8 - - - - SSE 9 19 5 10 1016.8 1016.8 -
17/12:30am 21.3 - - - - SSE 17 32 9 17 1016.7 1016.7 -
17/12:00am 21.8 - - - - S 7 20 4 11 1016.4 1016.4 -
 
Date/Time
WST
Temp
°C
App
Temp
°C
Dew
Point
°C
Rel
Hum
%
Delta-T
°C
Wind Press
QNH
hPa
Press
MSL
hPa
Rain since
9am
mm
Dir  Spd
km/h
Gust
km/h
Spd
kts
Gust
kts
16/11:30pm 21.9 - - - - S 11 26 6 14 1016.3 1016.3 -
16/11:00pm 22.1 - - - - S 11 32 6 17 1016.3 1016.3 -
16/10:30pm 22.0 - - - - SSW 13 32 7 17 1016.3 1016.3 -
16/10:00pm 22.0 - - - - SSW 11 30 6 16 1016.4 1016.4 -
16/09:30pm 21.9 - - - - SSW 13 28 7 15 1016.4 1016.4 -
16/09:00pm 21.9 - - - - SSW 15 33 8 18 1016.2 1016.2 -
16/08:30pm 22.2 - - - - SSW 15 37 8 20 1016.0 1016.0 -
16/08:00pm 22.0 - - - - SSW 15 37 8 20 1015.6 1015.6 -
16/07:30pm 21.7 - - - - SSW 20 35 11 19 1015.4 1015.4 -
16/07:00pm 21.6 - - - - SSW 19 39 10 21 1015.2 1015.2 -
16/06:30pm 21.6 - - - - SSW 20 35 11 19 1015.0 1015.0 -
16/06:00pm 21.8 - - - - SSW 22 39 12 21 1014.8 1014.8 -
16/05:30pm 22.2 - - - - SSW 20 35 11 19 1014.6 1014.6 -
16/05:00pm 22.3 - - - - SSW 22 37 12 20 1014.6 1014.6 -
16/04:30pm 22.5 - - - - SSW 20 33 11 18 1014.6 1014.6 -
16/04:00pm 22.5 - - - - SSW 19 32 10 17 1014.5 1014.5 -
16/03:30pm 22.4 - - - - SSW 19 32 10 17 1014.4 1014.4 -
16/03:00pm 22.4 - - - - SW 20 32 11 17 1014.6 1014.6 -
16/02:30pm 22.3 - - - - SW 20 32 11 17 1014.6 1014.6 -
16/02:00pm 22.2 - - - - SW 19 30 10 16 1014.8 1014.8 -
16/01:30pm 22.0 - - - - SW 19 32 10 17 1015.0 1015.0 -
16/01:00pm 22.0 - - - - SW 20 28 11 15 1015.1 1015.1 -
16/12:30pm 22.1 - - - - SW 15 24 8 13 1015.2 1015.2 -
16/12:00pm 22.2 - - - - SSW 17 28 9 15 1015.4 1015.4 -
16/11:30am 21.8 - - - - SSW 15 30 8 16 1015.6 1015.6 -
16/11:00am 22.0 - - - - SSW 13 28 7 15 1015.7 1015.7 -
16/10:30am 21.8 - - - - SSW 9 20 5 11 1015.8 1015.8 -
16/10:00am 21.8 - - - - SSW 11 22 6 12 1015.7 1015.7 -
16/09:30am 21.4 - - - - SSW 7 19 4 10 1015.6 1015.6 -
16/09:00am 21.3 - - - - S 7 17 4 9 1015.5 1015.5 -
16/08:30am 20.6 - - - - SSE 7 19 4 10 1015.4 1015.4 -
16/08:00am 20.0 - - - - SE 9 19 5 10 1015.2 1015.2 -
16/07:30am 19.6 - - - - SE 7 19 4 10 1015.1 1015.1 -
16/07:00am 19.2 - - - - SSE 15 26 8 14 1015.0 1015.0 -
16/06:30am 19.4 - - - - SE 6 17 3 9 1014.7 1014.7 -
16/06:00am 20.7 - - - - SSW 9 24 5 13 1014.0 1014.0 -
16/05:30am 20.6 - - - - SSW 11 28 6 15 1013.5 1013.5 -
16/05:00am 20.6 - - - - SSW 15 32 8 17 1013.0 1013.0 -
16/04:30am 20.6 - - - - SSW 19 28 10 15 1012.9 1012.8 -
16/04:00am 20.6 - - - - SSW 19 35 10 19 1012.5 1012.4 -
16/03:30am 20.6 - - - - SSW 17 30 9 16 1012.2 1012.1 -
16/03:00am 20.7 - - - - SW 20 33 11 18 1012.1 1012.0 -
16/02:30am 20.8 - - - - SW 17 26 9 14 1012.0 1011.9 -
16/02:00am 20.9 - - - - SW 19 28 10 15 1012.0 1011.9 -
16/01:30am 21.1 - - - - SW 17 26 9 14 1011.9 1011.8 -
16/01:00am 21.1 - - - - SW 17 28 9 15 1012.3 1012.2 -
16/12:30am 21.0 - - - - SW 19 28 10 15 1012.4 1012.3 -
16/12:00am 21.2 - - - - SW 20 30 11 16 1012.4 1012.3 -

Other formats

Comma delimited format used in spreadsheet applications
http://www.bom.gov.au/fwo/IDW60801/IDW60801.95605.axf

JavaScript Object Notation format (JSON) in row-major order
http://www.bom.gov.au/fwo/IDW60801/IDW60801.95605.json

Data quality

Most of these data are generated automatically and are frequently updated. Quality checks on data are not normally performed. It is possible for incorrect values to appear. Refer to information at About Latest Weather Observations and please check the disclaimer before using these data.